Time;durP1;ratioP1;P1;durP2;ratioP2;P2;SDS_P1;SDS_P2;PMS_P1;PMS_P2;Temp;Humidity;BMP_temperature;BMP_pressure;BME280_temperature;BME280_humidity;BME280_pressure;Samples;Min_cycle;Max_cycle;Signal;HPM_P1;HPM_P2
2021/06/03 00:01:00;;;;;;;21.77;13.33;;;;;;;11.60;52.28;99722.27;128818;1101;61827;-80
2021/06/03 00:03:31;;;;;;;24.10;14.20;;;;;;;11.59;52.19;99723.23;128838;1101;62000;-80
2021/06/03 00:06:05;;;;;;;28.97;14.70;;;;;;;11.54;51.87;99731.55;128826;1101;62571;-81
2021/06/03 00:08:33;;;;;;;23.63;13.77;;;;;;;11.55;52.04;99733.27;128837;1101;61955;-81
2021/06/03 00:11:16;;;;;;;21.40;13.60;;;;;;;11.54;52.40;99728.88;128857;1101;61803;-81
2021/06/03 00:13:44;;;;;;;23.20;12.63;;;;;;;11.52;52.33;99721.92;128829;1101;61895;-81
2021/06/03 00:16:15;;;;;;;22.00;13.77;;;;;;;11.50;52.40;99730.03;128800;1101;61821;-81
2021/06/03 00:18:45;;;;;;;22.30;14.73;;;;;;;11.46;52.28;99727.67;128819;1101;61970;-81
2021/06/03 00:21:14;;;;;;;29.43;15.20;;;;;;;11.40;52.17;99730.74;128811;1101;62126;-81
2021/06/03 00:23:40;;;;;;;25.57;15.03;;;;;;;11.33;52.44;99724.94;128808;1101;61843;-81
2021/06/03 00:26:07;;;;;;;27.37;17.03;;;;;;;11.27;52.36;99722.66;128826;1101;61865;-81
2021/06/03 00:28:34;;;;;;;23.97;15.07;;;;;;;11.21;52.88;99725.72;128810;1101;61957;-81
2021/06/03 00:31:00;;;;;;;27.83;16.30;;;;;;;11.15;52.77;99726.11;128811;1101;62635;-81
2021/06/03 00:33:35;;;;;;;27.43;16.43;;;;;;;11.15;52.98;99724.30;128829;1101;62002;-81
2021/06/03 00:36:04;;;;;;;30.15;16.10;;;;;;;11.16;53.18;99727.83;128795;1101;61982;-81
2021/06/03 00:38:40;;;;;;;30.20;16.20;;;;;;;11.21;53.06;99720.38;128814;1101;62011;-81
2021/06/03 00:41:09;;;;;;;32.13;17.00;;;;;;;11.24;52.97;99715.67;128867;1101;62009;-81
2021/06/03 00:44:00;;;;;;;32.40;17.10;;;;;;;11.27;52.77;99714.63;128817;1101;62903;-82
2021/06/03 00:46:28;;;;;;;29.80;16.83;;;;;;;11.25;53.00;99720.05;128813;1101;62055;-81
2021/06/03 00:49:19;;;;;;;25.77;15.10;;;;;;;11.22;53.34;99720.27;128834;1101;61856;-81
2021/06/03 00:52:11;;;;;;;;;;;;;;;;;;;;;
2021/06/03 00:54:43;;;;;;;34.80;16.13;;;;;;;11.13;52.95;99723.52;128834;1101;62050;-80
2021/06/03 00:57:14;;;;;;;27.03;15.50;;;;;;;11.05;53.38;99726.68;128820;1101;62058;-80
2021/06/03 00:59:44;;;;;;;27.93;16.23;;;;;;;10.99;52.96;99719.05;128793;1100;62390;-81
2021/06/03 01:02:27;;;;;;;;;;;;;;;;;;;;;
2021/06/03 01:05:37;;;;;;;22.43;12.87;;;;;;;10.86;53.32;99719.92;128832;1101;61795;-81
2021/06/03 01:08:20;;;;;;;;;;;;;;;;;;;;;
2021/06/03 01:16:20;;;;;;;22.00;11.78;;;;;;;10.81;53.71;99718.41;128414;1104;62092;-81
2021/06/03 01:19:11;;;;;;;23.87;12.60;;;;;;;10.87;53.85;99727.83;128448;1104;62068;-81
2021/06/03 01:21:55;;;;;;;24.10;13.33;;;;;;;10.90;54.00;99722.31;128455;1104;61926;-80
2021/06/03 01:24:39;;;;;;;19.93;12.63;;;;;;;10.89;53.92;99720.60;128471;1104;61966;-80
2021/06/03 01:28:02;;;;;;;21.43;13.10;;;;;;;10.85;53.92;99721.73;128445;1104;63069;-81
2021/06/03 01:30:43;;;;;;;19.70;12.50;;;;;;;10.81;53.76;99722.88;128412;1104;62038;-81
2021/06/03 01:33:22;;;;;;;19.17;12.67;;;;;;;10.75;53.94;99728.59;128057;1105;62033;-81
2021/06/03 01:35:55;;;;;;;23.90;12.00;;;;;;;10.69;54.09;99718.32;128106;1105;62033;-81
2021/06/03 01:38:27;;;;;;;19.13;12.23;;;;;;;10.62;53.92;99723.16;128084;1104;61933;-81
2021/06/03 01:40:59;;;;;;;23.73;11.47;;;;;;;10.56;53.94;99718.22;128047;1105;62116;-81
2021/06/03 01:43:32;;;;;;;25.60;12.50;;;;;;;10.51;54.16;99739.00;128072;1105;62071;-81
2021/06/03 01:46:15;;;;;;;;;;;;;;;;;;;;;
2021/06/03 01:49:05;;;;;;;23.57;11.93;;;;;;;10.39;54.20;99727.25;128141;1104;62042;-81
2021/06/03 01:51:32;;;;;;;20.53;11.10;;;;;;;10.38;54.27;99730.88;128480;1104;62039;-81
2021/06/03 01:53:59;;;;;;;18.93;11.47;;;;;;;10.41;54.60;99733.34;128470;1104;62325;-81
2021/06/03 01:56:26;;;;;;;19.73;10.90;;;;;;;10.40;54.64;99736.97;128425;1104;62106;-81
2021/06/03 01:58:57;;;;;;;20.53;11.30;;;;;;;10.41;54.54;99730.67;128485;1104;61928;-81
2021/06/03 02:01:30;;;;;;;20.20;10.93;;;;;;;10.47;54.51;99729.45;128453;1104;61911;-81
2021/06/03 02:04:03;;;;;;;17.30;10.63;;;;;;;10.47;54.68;99727.63;128479;1104;61950;-81
2021/06/03 02:06:30;;;;;;;19.03;11.07;;;;;;;10.52;54.88;99727.36;128524;1101;63353;-81
2021/06/03 02:08:59;;;;;;;17.77;11.10;;;;;;;10.47;54.74;99727.63;128799;1101;62013;-81
2021/06/03 02:11:27;;;;;;;21.07;11.80;;;;;;;10.40;54.73;99726.29;128825;1101;61851;-81
2021/06/03 02:13:58;;;;;;;22.63;11.87;;;;;;;10.38;54.72;99738.88;128823;1101;61995;-80
2021/06/03 02:16:57;;;;;;;19.83;11.80;;;;;;;10.32;55.04;99743.73;128799;1101;61802;-81
2021/06/03 02:19:51;;;;;;;;;;;;;;;;;;;;;
2021/06/03 02:22:29;;;;;;;26.23;14.03;;;;;;;10.06;54.89;99745.26;128793;1101;61957;-81
2021/06/03 02:25:00;;;;;;;32.83;14.93;;;;;;;9.88;54.89;99750.71;128812;1101;61840;-81
2021/06/03 02:27:27;;;;;;;27.47;15.97;;;;;;;9.78;55.02;99752.18;128836;1101;61966;-81
2021/06/03 02:29:55;;;;;;;38.47;18.57;;;;;;;9.71;55.13;99757.01;128835;1101;61808;-81
2021/06/03 02:32:30;;;;;;;39.57;22.07;;;;;;;9.64;55.24;99750.31;128820;1101;62059;-81
2021/06/03 02:34:59;;;;;;;36.40;21.47;;;;;;;9.60;55.35;99754.09;128795;1101;61953;-81
2021/06/03 02:37:27;;;;;;;51.83;26.63;;;;;;;9.61;55.50;99755.84;128792;1101;62068;-81
2021/06/03 02:40:01;;;;;;;44.63;26.47;;;;;;;9.64;55.42;99757.45;128808;1101;62015;-81
2021/06/03 02:42:36;;;;;;;42.10;23.03;;;;;;;9.69;55.44;99755.39;128822;1101;61773;-81
2021/06/03 02:45:10;;;;;;;31.13;19.30;;;;;;;9.70;55.51;99752.63;128838;1101;62564;-81
2021/06/03 02:47:50;;;;;;;35.47;19.17;;;;;;;9.73;55.57;99755.13;128812;1100;62019;-81
2021/06/03 02:50:21;;;;;;;30.43;18.33;;;;;;;9.74;55.80;99755.99;128829;1101;62075;-81
2021/06/03 02:52:48;;;;;;;31.60;18.47;;;;;;;9.72;55.62;99757.87;128801;1101;61931;-81
2021/06/03 02:55:18;;;;;;;30.60;17.17;;;;;;;9.71;55.57;99758.82;128831;1101;61849;-81
2021/06/03 02:57:45;;;;;;;26.33;16.43;;;;;;;9.70;55.72;99762.44;128833;1101;62092;-81
2021/06/03 03:00:20;;;;;;;29.33;16.40;;;;;;;9.66;55.77;99763.55;128778;1101;61968;-81
2021/06/03 03:02:48;;;;;;;28.53;15.80;;;;;;;9.57;55.95;99770.28;128836;1101;61921;-81
2021/06/03 03:05:16;;;;;;;31.17;15.33;;;;;;;9.48;56.21;99766.34;128805;1101;61891;-81
2021/06/03 03:07:43;;;;;;;25.10;14.13;;;;;;;9.47;56.24;99763.73;128844;1101;61995;-81
2021/06/03 03:10:14;;;;;;;22.87;13.00;;;;;;;9.47;56.49;99764.59;128811;1101;62038;-81
2021/06/03 03:12:41;;;;;;;22.20;12.17;;;;;;;9.46;56.38;99759.35;128811;1101;61754;-81
2021/06/03 03:15:14;;;;;;;22.87;10.50;;;;;;;9.47;56.56;99766.39;128837;1101;61927;-81
2021/06/03 03:17:41;;;;;;;19.67;10.63;;;;;;;9.58;56.69;99758.66;128802;1101;61822;-81
2021/06/03 03:20:11;;;;;;;18.53;10.40;;;;;;;9.69;56.67;99763.39;128802;1101;61844;-80
2021/06/03 03:22:42;;;;;;;23.77;10.60;;;;;;;9.75;56.74;99763.90;128786;1101;61970;-80
2021/06/03 03:25:11;;;;;;;21.57;10.80;;;;;;;9.85;56.83;99766.02;128780;1101;61857;-80
2021/06/03 03:27:41;;;;;;;18.70;11.20;;;;;;;9.96;57.04;99766.27;128828;1101;61792;-80
2021/06/03 03:30:14;;;;;;;19.13;11.53;;;;;;;10.05;56.61;99764.86;128817;1101;61875;-80
2021/06/03 03:32:45;;;;;;;21.90;12.37;;;;;;;10.12;56.68;99766.25;128832;1101;62075;-80
2021/06/03 03:35:12;;;;;;;23.60;13.13;;;;;;;10.19;56.59;99768.45;128827;1101;62772;-80
2021/06/03 03:37:41;;;;;;;25.07;14.50;;;;;;;10.25;56.68;99773.47;128804;1101;62094;-80
2021/06/03 03:40:12;;;;;;;23.43;14.13;;;;;;;10.30;56.68;99775.84;128834;1101;61870;-80
2021/06/03 03:42:41;;;;;;;25.00;12.90;;;;;;;10.43;56.63;99771.52;128824;1101;61809;-80
2021/06/03 03:45:14;;;;;;;20.60;12.13;;;;;;;10.67;56.30;99773.63;128816;1101;61870;-81
2021/06/03 03:47:43;;;;;;;23.50;12.57;;;;;;;10.93;56.23;99778.22;128842;1101;62904;-80
2021/06/03 03:50:13;;;;;;;19.90;11.70;;;;;;;11.23;56.41;99779.94;128805;1101;62010;-80
2021/06/03 03:52:42;;;;;;;22.60;12.50;;;;;;;11.51;56.22;99782.56;128845;1101;61879;-80
2021/06/03 03:55:13;;;;;;;24.33;12.73;;;;;;;11.75;55.76;99780.12;128866;1101;61819;-80
2021/06/03 03:57:41;;;;;;;20.43;11.80;;;;;;;11.99;55.89;99783.03;128817;1101;61841;-80
2021/06/03 04:00:21;;;;;;;17.03;11.33;;;;;;;12.18;55.87;99777.31;128846;1101;62124;-80
2021/06/03 04:02:55;;;;;;;17.87;10.37;;;;;;;12.41;56.01;99773.09;128824;1101;62009;-80
2021/06/03 04:05:26;;;;;;;17.00;10.00;;;;;;;12.58;55.56;99775.45;128826;1101;61903;-81
2021/06/03 04:07:53;;;;;;;16.63;9.67;;;;;;;12.74;55.67;99775.27;128805;1101;61974;-80
2021/06/03 04:10:21;;;;;;;16.05;8.95;;;;;;;12.88;55.63;99774.30;128826;1101;61883;-80
2021/06/03 04:12:51;;;;;;;12.87;8.80;;;;;;;13.01;55.75;99780.50;128853;1101;63374;-80
2021/06/03 04:15:19;;;;;;;16.40;8.40;;;;;;;13.12;56.02;99780.61;128793;1101;62383;-81
2021/06/03 04:17:47;;;;;;;13.60;8.57;;;;;;;13.29;55.87;99786.61;128821;1101;61903;-80
2021/06/03 04:20:19;;;;;;;14.43;9.00;;;;;;;13.43;56.28;99783.81;128815;1101;62066;-80
2021/06/03 04:22:50;;;;;;;14.13;9.37;;;;;;;13.60;56.37;99780.73;128807;1101;61858;-80
2021/06/03 04:25:18;;;;;;;15.37;9.50;;;;;;;13.75;56.27;99776.95;128798;1101;63114;-80
2021/06/03 04:27:45;;;;;;;18.07;9.47;;;;;;;13.94;56.12;99783.64;128812;1101;61857;-80
2021/06/03 04:30:23;;;;;;;16.03;10.83;;;;;;;14.11;56.12;99777.84;128841;1101;61879;-80
2021/06/03 04:32:51;;;;;;;16.33;10.23;;;;;;;14.33;56.17;99785.16;128835;1101;62005;-80
2021/06/03 04:35:22;;;;;;;15.70;10.03;;;;;;;14.53;56.31;99778.29;128839;1101;61850;-80
2021/06/03 04:37:51;;;;;;;16.07;9.93;;;;;;;14.68;55.97;99774.41;128805;1101;63073;-80
2021/06/03 04:40:20;;;;;;;17.73;9.27;;;;;;;14.83;55.94;99783.98;128788;1101;62010;-80
2021/06/03 04:42:47;;;;;;;17.53;9.10;;;;;;;14.99;55.98;99788.14;128816;1101;61973;-80
2021/06/03 04:45:15;;;;;;;18.80;9.00;;;;;;;15.14;55.88;99782.43;128813;1101;61845;-80
2021/06/03 04:47:45;;;;;;;13.27;9.00;;;;;;;15.31;55.73;99786.44;128829;1101;61792;-80
2021/06/03 04:50:19;;;;;;;12.83;8.20;;;;;;;15.44;55.57;99780.08;128829;1101;63227;-80
2021/06/03 04:52:45;;;;;;;13.40;7.60;;;;;;;15.53;55.45;99790.12;128804;1101;61795;-80
2021/06/03 04:55:19;;;;;;;9.27;6.67;;;;;;;15.65;55.31;99789.16;128838;1101;61987;-80
2021/06/03 04:57:47;;;;;;;15.10;7.20;;;;;;;15.81;55.14;99791.44;128788;1101;61851;-80
2021/06/03 05:00:21;;;;;;;11.63;6.07;;;;;;;15.96;55.20;99792.86;128804;1101;61822;-80
2021/06/03 05:02:50;;;;;;;11.80;6.53;;;;;;;16.09;55.04;99795.39;128789;1101;63141;-80
2021/06/03 05:05:17;;;;;;;9.33;6.17;;;;;;;16.22;55.25;99801.46;128812;1101;62001;-80
2021/06/03 05:07:46;;;;;;;11.77;6.50;;;;;;;16.32;55.10;99802.41;128827;1101;61995;-80
2021/06/03 05:10:13;;;;;;;10.30;5.60;;;;;;;16.44;54.92;99804.08;128801;1101;61836;-80
2021/06/03 05:12:40;;;;;;;8.50;5.80;;;;;;;16.60;54.84;99805.46;128799;1102;61949;-80
2021/06/03 05:15:11;;;;;;;13.23;7.00;;;;;;;16.78;55.13;99805.77;128816;1101;63147;-80
2021/06/03 05:17:38;;;;;;;12.63;7.80;;;;;;;16.96;54.92;99807.73;128800;1101;62198;-80
2021/06/03 05:20:07;;;;;;;12.37;7.63;;;;;;;17.16;54.78;99805.14;128841;1101;62014;-80
2021/06/03 05:22:35;;;;;;;10.90;7.47;;;;;;;17.37;54.57;99800.58;128803;1101;61842;-80
2021/06/03 05:25:07;;;;;;;9.50;6.37;;;;;;;17.56;54.57;99805.20;128807;1101;62066;-80
2021/06/03 05:27:36;;;;;;;11.70;6.40;;;;;;;17.76;54.36;99811.55;128847;1101;62856;-80
2021/06/03 05:30:06;;;;;;;8.70;5.80;;;;;;;17.96;54.54;99807.03;128805;1101;61984;-79
2021/06/03 05:32:34;;;;;;;15.33;6.90;;;;;;;18.19;54.39;99813.02;128834;1101;61971;-80
2021/06/03 05:35:01;;;;;;;11.10;6.67;;;;;;;18.38;54.22;99813.03;128836;1101;61896;-80
2021/06/03 05:37:35;;;;;;;8.78;5.50;;;;;;;18.58;54.18;99811.22;128812;1101;61777;-80
2021/06/03 05:40:04;;;;;;;9.00;6.17;;;;;;;18.72;53.82;99805.39;128822;1101;62626;-80
2021/06/03 05:42:34;;;;;;;11.00;5.90;;;;;;;18.79;53.70;99805.66;128824;1101;62118;-79
2021/06/03 05:45:00;;;;;;;10.00;5.30;;;;;;;18.90;53.84;99806.36;128858;1101;61834;-79
2021/06/03 05:47:27;;;;;;;6.90;5.50;;;;;;;19.05;53.96;99806.74;128834;1101;61981;-80
2021/06/03 05:49:53;;;;;;;6.30;5.07;;;;;;;19.22;53.96;99809.70;128825;1101;61808;-79
2021/06/03 05:52:20;;;;;;;9.63;6.30;;;;;;;19.42;54.03;99814.89;128867;1101;61865;-79
2021/06/03 05:54:46;;;;;;;6.90;5.20;;;;;;;19.63;53.86;99809.27;128784;1101;62033;-80
2021/06/03 05:57:13;;;;;;;7.23;4.93;;;;;;;19.79;53.57;99815.91;128817;1101;61862;-80
2021/06/03 05:59:42;;;;;;;9.73;5.17;;;;;;;19.90;53.88;99812.97;128853;1101;61958;-79
2021/06/03 06:02:13;;;;;;;10.33;5.57;;;;;;;20.04;53.82;99820.61;128860;1101;61925;-79
2021/06/03 06:07:24;;;;;;;10.47;4.43;;;;;;;20.24;52.92;99816.75;128837;1101;61945;-79
2021/06/03 06:09:51;;;;;;;7.70;4.13;;;;;;;20.29;53.43;99823.55;128816;1101;61959;-79
2021/06/03 06:12:20;;;;;;;14.00;4.80;;;;;;;20.38;53.10;99823.49;128853;1101;61992;-79
2021/06/03 06:14:46;;;;;;;5.53;4.17;;;;;;;20.49;53.01;99819.73;128845;1101;61799;-79
2021/06/03 06:17:13;;;;;;;4.83;3.90;;;;;;;20.61;52.82;99828.47;128813;1101;62657;-79
2021/06/03 06:19:41;;;;;;;10.43;4.67;;;;;;;20.67;52.67;99828.70;128795;1101;61816;-79
2021/06/03 06:22:08;;;;;;;6.77;4.07;;;;;;;20.76;52.81;99829.64;128855;1101;61935;-79
2021/06/03 06:24:34;;;;;;;10.17;4.50;;;;;;;20.84;52.63;99832.41;128809;1101;61853;-79
2021/06/03 06:27:01;;;;;;;6.97;4.13;;;;;;;20.93;52.66;99827.88;128813;1101;62033;-79
2021/06/03 06:29:30;;;;;;;5.67;4.23;;;;;;;20.99;52.35;99836.28;128828;1101;61968;-79
2021/06/03 06:31:57;;;;;;;7.63;4.27;;;;;;;21.11;52.30;99842.28;128828;1101;61818;-79
2021/06/03 06:34:23;;;;;;;5.10;4.37;;;;;;;21.27;52.65;99839.69;128844;1101;62054;-79
2021/06/03 06:36:50;;;;;;;11.37;4.70;;;;;;;21.50;52.69;99836.44;128839;1101;61978;-80
2021/06/03 06:39:17;;;;;;;6.10;4.30;;;;;;;21.66;52.47;99839.25;128824;1101;61824;-79
2021/06/03 06:41:45;;;;;;;8.60;3.47;;;;;;;21.81;52.16;99845.77;128829;1101;63390;-80
2021/06/03 06:44:13;;;;;;;6.13;4.03;;;;;;;21.93;51.92;99848.20;128824;1101;61987;-80
2021/06/03 06:46:40;;;;;;;5.63;3.80;;;;;;;21.99;51.98;99852.98;128800;1101;62189;-80
2021/06/03 06:49:07;;;;;;;7.53;4.50;;;;;;;22.10;52.14;99850.00;128807;1101;61874;-80
2021/06/03 06:51:36;;;;;;;5.53;3.97;;;;;;;22.22;51.94;99845.95;128823;1101;61876;-79
2021/06/03 06:54:03;;;;;;;5.83;3.67;;;;;;;22.31;52.02;99852.26;128811;1101;62004;-81
2021/06/03 06:56:30;;;;;;;5.93;3.80;;;;;;;22.38;51.79;99850.57;128807;1101;61986;-80
2021/06/03 06:58:57;;;;;;;4.67;3.87;;;;;;;22.49;51.75;99852.13;128856;1101;61775;-80
2021/06/03 07:01:23;;;;;;;4.27;3.70;;;;;;;22.60;51.61;99852.66;128793;1101;61926;-80
2021/06/03 07:03:51;;;;;;;6.17;3.77;;;;;;;22.73;51.76;99854.89;128804;1101;62481;-81
2021/06/03 07:06:18;;;;;;;8.07;4.03;;;;;;;22.81;51.55;99859.48;128806;1101;61903;-80
2021/06/03 07:08:44;;;;;;;5.40;3.53;;;;;;;22.92;51.51;99856.45;128835;1101;61970;-81
2021/06/03 07:11:11;;;;;;;7.43;3.70;;;;;;;22.99;51.25;99856.63;128802;1101;62028;-81
2021/06/03 07:13:38;;;;;;;7.27;3.20;;;;;;;23.10;51.32;99848.95;128808;1101;61928;-82
2021/06/03 07:16:05;;;;;;;5.43;3.60;;;;;;;23.14;51.29;99854.89;128851;1101;61857;-81
2021/06/03 07:18:32;;;;;;;4.57;3.77;;;;;;;23.24;51.41;99858.30;128851;1101;61978;-81
2021/06/03 07:20:59;;;;;;;4.50;3.40;;;;;;;23.35;50.73;99857.95;128797;1101;62167;-82
2021/06/03 07:23:25;;;;;;;8.00;3.43;;;;;;;23.35;50.60;99863.41;128817;1101;62038;-81
2021/06/03 07:25:56;;;;;;;7.80;3.27;;;;;;;23.34;50.56;99867.13;128830;1101;61899;-82
2021/06/03 07:28:23;;;;;;;8.77;3.23;;;;;;;23.38;50.66;99863.05;128819;1101;61933;-81
2021/06/03 07:30:50;;;;;;;5.87;3.87;;;;;;;23.53;50.94;99863.17;128817;1101;62882;-81
2021/06/03 07:33:17;;;;;;;3.63;2.87;;;;;;;23.67;50.47;99872.56;128832;1101;61976;-82
2021/06/03 07:35:44;;;;;;;6.00;2.97;;;;;;;23.75;50.74;99869.80;128807;1101;61990;-81
2021/06/03 07:38:11;;;;;;;6.60;3.30;;;;;;;23.86;50.42;99869.43;128818;1101;61798;-82
2021/06/03 07:40:42;;;;;;;5.40;3.30;;;;;;;23.96;50.37;99871.93;128832;1101;61852;-82
2021/06/03 07:43:13;;;;;;;7.33;2.63;;;;;;;24.04;50.21;99871.88;128806;1101;62181;-82
2021/06/03 07:45:42;;;;;;;3.43;2.60;;;;;;;24.06;49.67;99871.73;128826;1101;62237;-82
2021/06/03 07:48:09;;;;;;;4.10;3.10;;;;;;;24.07;49.29;99870.70;128798;1101;62046;-83
2021/06/03 07:50:36;;;;;;;3.60;2.40;;;;;;;24.14;49.41;99858.89;128820;1101;61846;-82
2021/06/03 07:53:05;;;;;;;6.80;3.10;;;;;;;24.21;48.94;99867.21;128832;1101;61952;-84
2021/06/03 07:55:33;;;;;;;4.03;2.53;;;;;;;24.21;49.25;99868.06;128831;1101;62940;-82
2021/06/03 07:58:07;;;;;;;4.05;2.80;;;;;;;24.23;48.17;99862.41;128802;1101;62394;-82
2021/06/03 08:00:42;;;;;;;3.13;2.30;;;;;;;24.19;48.53;99869.28;128847;1101;61910;-82
2021/06/03 08:03:14;;;;;;;4.18;2.35;;;;;;;24.20;48.20;99868.24;128810;1101;61859;-83
2021/06/03 08:05:44;;;;;;;4.00;2.27;;;;;;;24.12;47.55;99866.41;128826;1101;61791;-83
2021/06/03 08:08:14;;;;;;;9.63;2.40;;;;;;;24.08;48.06;99877.85;128817;1101;63239;-82
2021/06/03 08:10:51;;;;;;;3.00;2.70;;;;;;;24.13;48.16;99867.27;128813;1101;61958;-83
2021/06/03 08:13:18;;;;;;;5.53;2.53;;;;;;;24.15;47.73;99876.11;128815;1101;62022;-82
2021/06/03 08:15:45;;;;;;;5.60;2.80;;;;;;;24.15;47.71;99876.11;128816;1101;61890;-82
2021/06/03 08:18:13;;;;;;;3.53;2.40;;;;;;;24.27;47.62;99874.69;128811;1101;61962;-82
2021/06/03 08:20:45;;;;;;;3.40;2.50;;;;;;;24.45;47.76;99886.22;128807;1101;62193;-82
2021/06/03 08:23:15;;;;;;;7.67;2.63;;;;;;;24.61;46.81;99878.94;128803;1101;62001;-83
2021/06/03 08:25:42;;;;;;;8.60;2.27;;;;;;;24.61;47.19;99879.79;128813;1101;62051;-82
2021/06/03 08:28:09;;;;;;;3.77;2.53;;;;;;;24.70;47.03;99875.14;128800;1101;61775;-80
2021/06/03 08:30:40;;;;;;;5.80;2.60;;;;;;;24.75;47.02;99878.19;128826;1101;61931;-82
2021/06/03 08:33:08;;;;;;;8.97;2.70;;;;;;;24.82;46.13;99868.22;128841;1101;62393;-84
2021/06/03 08:35:35;;;;;;;5.40;2.53;;;;;;;24.74;46.46;99873.72;128806;1101;61939;-82
2021/06/03 08:38:07;;;;;;;4.70;2.87;;;;;;;24.84;46.59;99877.08;128810;1101;61857;-81
2021/06/03 08:40:41;;;;;;;9.47;4.57;;;;;;;24.96;46.48;99880.23;128808;1101;61891;-82
2021/06/03 08:43:08;;;;;;;2.93;2.60;;;;;;;25.10;46.62;99878.61;128836;1101;61812;-83
2021/06/03 08:45:37;;;;;;;3.00;2.47;;;;;;;25.12;46.01;99880.11;128814;1101;62964;-82
2021/06/03 08:48:05;;;;;;;3.67;2.37;;;;;;;25.13;45.91;99881.84;128808;1101;61967;-82
2021/06/03 08:50:36;;;;;;;2.37;2.17;;;;;;;25.19;45.70;99880.22;128828;1101;61968;-82
2021/06/03 08:53:03;;;;;;;4.97;2.73;;;;;;;25.15;45.25;99879.76;128819;1101;61864;-81
2021/06/03 08:58:19;;;;;;;2.70;2.30;;;;;;;25.25;45.92;99880.33;128807;1101;62609;-82
2021/06/03 09:00:49;;;;;;;3.20;2.30;;;;;;;25.30;45.77;99874.31;128787;1101;62001;-82
2021/06/03 09:03:19;;;;;;;5.50;2.43;;;;;;;25.31;44.85;99868.66;128826;1101;62049;-82
2021/06/03 09:05:46;;;;;;;6.73;3.33;;;;;;;25.28;44.85;99876.39;128810;1101;61908;-79
2021/06/03 09:08:24;;;;;;;4.20;2.63;;;;;;;25.30;45.33;99877.05;128822;1101;61790;-81
2021/06/03 09:10:54;;;;;;;4.67;2.50;;;;;;;25.37;45.23;99874.42;128824;1101;61925;-79
2021/06/03 09:13:26;;;;;;;5.27;2.60;;;;;;;25.40;44.81;99876.80;128821;1101;62032;-81
2021/06/03 09:16:12;;;;;;;6.20;2.60;;;;;;;25.38;44.70;99873.38;128838;1101;62042;-81
2021/06/03 09:18:51;;;;;;;2.87;2.30;;;;;;;25.44;45.00;99873.48;128818;1101;61936;-81
2021/06/03 09:21:30;;;;;;;2.83;2.50;;;;;;;25.64;44.76;99878.40;128834;1101;61844;-81
2021/06/03 09:24:03;;;;;;;4.90;2.43;;;;;;;25.79;44.43;99876.57;128815;1101;62123;-80
2021/06/03 09:26:52;;;;;;;2.40;2.10;;;;;;;25.83;44.58;99884.22;128790;1101;62029;-81
2021/06/03 09:29:36;;;;;;;7.53;2.20;;;;;;;25.89;44.44;99882.59;128843;1101;61763;-79
2021/06/03 09:32:09;;;;;;;4.33;2.30;;;;;;;25.90;43.87;99877.99;128845;1100;61985;-80
2021/06/03 09:34:55;;;;;;;5.97;2.37;;;;;;;25.95;43.94;99886.45;128807;1101;61927;-82
2021/06/03 09:37:34;;;;;;;4.00;2.33;;;;;;;25.99;44.27;99882.31;128783;1101;62885;-80
2021/06/03 09:40:01;;;;;;;2.57;2.37;;;;;;;26.03;43.63;99879.02;128793;1101;61905;-79
2021/06/03 09:42:30;;;;;;;5.97;2.03;;;;;;;26.04;43.47;99880.70;128783;1101;62468;-80
2021/06/03 09:44:58;;;;;;;2.83;1.93;;;;;;;26.03;43.74;99878.16;128805;1101;61799;-80
2021/06/03 09:47:33;;;;;;;6.40;2.40;;;;;;;26.04;43.78;99879.86;128836;1101;62001;-81
2021/06/03 09:50:00;;;;;;;3.73;3.23;;;;;;;26.04;43.56;99877.13;128803;1101;63062;-79
2021/06/03 09:52:35;;;;;;;6.47;2.20;;;;;;;26.05;43.37;99871.45;128777;1101;61930;-80
2021/06/03 09:55:06;;;;;;;3.17;2.30;;;;;;;26.00;43.63;99876.64;128789;1101;61957;-79
2021/06/03 09:57:41;;;;;;;7.00;2.37;;;;;;;26.07;43.20;99868.52;128833;1101;61901;-81
2021/06/03 10:00:11;;;;;;;2.80;2.27;;;;;;;26.03;43.02;99876.27;128817;1101;61791;-79
2021/06/03 10:02:53;;;;;;;5.37;2.40;;;;;;;26.06;43.07;99870.41;128839;1101;62904;-79
2021/06/03 10:05:22;;;;;;;4.43;2.30;;;;;;;26.06;42.79;99870.41;128798;1101;61976;-82
2021/06/03 10:07:56;;;;;;;5.13;2.97;;;;;;;26.07;42.58;99876.73;128844;1101;61815;-79
2021/06/03 10:10:29;;;;;;;12.03;9.27;;;;;;;26.09;42.64;99863.72;128804;1101;61827;-80
2021/06/03 10:12:57;;;;;;;5.43;3.03;;;;;;;26.19;42.91;99861.52;128818;1101;61852;-79
2021/06/03 10:15:24;;;;;;;4.73;2.93;;;;;;;26.26;42.74;99865.17;128837;1101;62133;-80
2021/06/03 10:17:58;;;;;;;6.13;3.20;;;;;;;26.26;42.84;99862.44;128840;1101;62043;-79
2021/06/03 10:20:37;;;;;;;3.30;2.40;;;;;;;26.36;42.39;99864.88;128823;1101;62056;-80
2021/06/03 10:23:10;;;;;;;5.53;2.50;;;;;;;26.38;42.21;99862.79;128821;1101;61937;-79
2021/06/03 10:25:37;;;;;;;5.20;2.77;;;;;;;26.32;42.88;99858.93;128825;1101;61873;-80
2021/06/03 10:28:19;;;;;;;4.13;2.90;;;;;;;26.39;42.64;99864.48;128826;1101;62152;-80
2021/06/03 10:31:02;;;;;;;4.80;2.70;;;;;;;26.47;42.17;99858.09;128816;1101;61872;-79
2021/06/03 10:33:32;;;;;;;5.00;2.30;;;;;;;26.46;42.23;99862.70;128832;1101;62118;-80
2021/06/03 10:36:01;;;;;;;2.77;2.10;;;;;;;26.36;41.43;99853.93;128805;1101;61853;-80
2021/06/03 10:38:28;;;;;;;2.67;2.17;;;;;;;26.30;41.84;99857.44;128831;1101;61987;-82
2021/06/03 10:41:02;;;;;;;3.27;2.40;;;;;;;26.28;41.61;99859.53;128795;1101;62034;-80
2021/06/03 10:43:33;;;;;;;5.25;2.40;;;;;;;26.31;41.84;99859.13;128801;1101;62102;-79
2021/06/03 10:46:00;;;;;;;3.80;2.20;;;;;;;26.34;41.96;99856.87;128820;1101;62062;-79
2021/06/03 10:48:26;;;;;;;6.50;2.97;;;;;;;26.36;41.94;99853.93;128793;1101;62010;-80
2021/06/03 10:50:55;;;;;;;4.73;2.60;;;;;;;26.46;41.89;99859.11;128838;1101;61813;-79
2021/06/03 10:53:24;;;;;;;4.00;2.87;;;;;;;26.54;41.65;99854.38;128829;1101;63407;-80
2021/06/03 10:55:53;;;;;;;4.67;2.40;;;;;;;26.64;41.62;99852.15;128806;1101;61956;-80
2021/06/03 10:58:41;;;;;;;4.70;2.17;;;;;;;26.72;41.37;99855.80;128827;1101;61818;-80
2021/06/03 11:01:13;;;;;;;4.10;2.83;;;;;;;26.62;41.03;99848.77;128838;1101;61831;-79
2021/06/03 11:03:42;;;;;;;2.70;2.10;;;;;;;26.51;41.04;99845.69;128845;1101;61780;-79
2021/06/03 11:06:11;;;;;;;2.50;2.30;;;;;;;26.47;41.18;99852.62;128836;1101;62712;-80
2021/06/03 11:09:05;;;;;;;2.67;2.30;;;;;;;26.53;41.01;99843.59;128798;1101;61998;-79
2021/06/03 11:11:45;;;;;;;3.50;2.47;;;;;;;26.57;41.21;99842.17;128824;1101;61883;-79
2021/06/03 11:14:17;;;;;;;4.50;2.10;;;;;;;26.59;40.80;99840.95;128806;1101;61846;-80
2021/06/03 11:16:52;;;;;;;9.30;3.13;;;;;;;26.59;41.31;99842.81;128811;1101;61868;-79
2021/06/03 11:19:27;;;;;;;4.17;2.83;;;;;;;26.60;40.87;99848.13;128813;1101;62980;-81
2021/06/03 11:21:58;;;;;;;3.80;2.27;;;;;;;26.58;40.57;99843.86;128815;1101;62000;-79
2021/06/03 11:24:27;;;;;;;6.20;2.57;;;;;;;26.60;40.78;99837.16;128844;1101;62000;-79
2021/06/03 11:27:00;;;;;;;11.00;5.17;;;;;;;26.66;40.79;99824.58;128814;1101;62019;-80
2021/06/03 11:29:30;;;;;;;6.97;3.20;;;;;;;26.70;40.75;99831.34;128801;1101;61815;-79
2021/06/03 11:32:06;;;;;;;8.17;2.97;;;;;;;26.68;40.26;99830.70;128818;1101;62865;-79
2021/06/03 11:34:39;;;;;;;5.03;2.93;;;;;;;26.59;40.73;99834.59;128826;1101;62021;-79
2021/06/03 11:37:33;;;;;;;5.27;2.93;;;;;;;26.62;40.50;99835.06;128831;1101;61849;-79
2021/06/03 11:40:12;;;;;;;4.50;2.50;;;;;;;26.67;40.10;99829.86;128815;1101;62017;-79
2021/06/03 11:42:49;;;;;;;4.53;2.07;;;;;;;26.73;40.38;99824.64;128804;1101;62200;-80
2021/06/03 11:45:33;;;;;;;5.50;2.73;;;;;;;26.73;40.41;99822.75;128810;1101;63067;-79
2021/06/03 11:48:07;;;;;;;8.27;2.60;;;;;;;26.74;40.54;99826.34;128796;1101;62436;-79
2021/06/03 11:50:37;;;;;;;2.95;2.25;;;;;;;26.77;40.30;99821.30;128853;1101;62216;-79
2021/06/03 11:53:09;;;;;;;4.07;2.50;;;;;;;26.83;40.31;99827.88;128794;1101;61831;-79
2021/06/03 11:55:41;;;;;;;6.73;2.97;;;;;;;26.81;39.70;99824.50;128842;1101;61817;-79
2021/06/03 11:58:44;;;;;;;35.60;26.43;;;;;;;26.67;40.06;99816.16;128809;1101;61926;-79